sensor_id;sensor_type;location;lat;lon;timestamp;pressure;altitude;pressure_sealevel;temperature;humidity
4326;BME280;58429;49.826;10.880;2023-08-06T00:00:26;97905;;;16.5;80.26
4326;BME280;58429;49.826;10.880;2023-08-06T00:01:26;97908;;;16.49;80.18
4326;BME280;58429;49.826;10.880;2023-08-06T00:02:26;97902;;;16.53;80.21
4326;BME280;58429;49.826;10.880;2023-08-06T00:03:26;97904;;;16.53;80.22
4326;BME280;58429;49.826;10.880;2023-08-06T00:04:26;97914;;;16.56;80.31
4326;BME280;58429;49.826;10.880;2023-08-06T00:05:26;97903;;;16.51;80.12
4326;BME280;58429;49.826;10.880;2023-08-06T00:06:26;97913;;;16.51;80.17
4326;BME280;58429;49.826;10.880;2023-08-06T00:07:26;97913;;;16.45;80.52
4326;BME280;58429;49.826;10.880;2023-08-06T00:08:26;97918;;;16.39;80.85
4326;BME280;58429;49.826;10.880;2023-08-06T00:09:26;97916;;;16.36;81.5
4326;BME280;58429;49.826;10.880;2023-08-06T00:10:26;97915;;;16.31;82.04
4326;BME280;58429;49.826;10.880;2023-08-06T00:11:26;97912;;;16.3;81.89
4326;BME280;58429;49.826;10.880;2023-08-06T00:12:27;97912;;;16.24;82.17
4326;BME280;58429;49.826;10.880;2023-08-06T00:13:26;97920;;;16.28;82.22
4326;BME280;58429;49.826;10.880;2023-08-06T00:14:26;97920;;;16.21;82.44
4326;BME280;58429;49.826;10.880;2023-08-06T00:15:26;97924;;;16.17;82.4
4326;BME280;58429;49.826;10.880;2023-08-06T00:16:26;97923;;;16.15;82.4
4326;BME280;58429;49.826;10.880;2023-08-06T00:17:26;97926;;;16.11;82.36
4326;BME280;58429;49.826;10.880;2023-08-06T00:18:26;97927;;;16.06;82.35
4326;BME280;58429;49.826;10.880;2023-08-06T00:19:26;97927;;;16.02;82.64
4326;BME280;58429;49.826;10.880;2023-08-06T00:20:26;97928;;;15.98;82.65
4326;BME280;58429;49.826;10.880;2023-08-06T00:21:26;97929;;;15.94;82.75
4326;BME280;58429;49.826;10.880;2023-08-06T00:22:26;97923;;;15.91;82.91
4326;BME280;58429;49.826;10.880;2023-08-06T00:23:26;97920;;;15.83;82.97
4326;BME280;58429;49.826;10.880;2023-08-06T00:24:26;97924;;;15.83;83.2
4326;BME280;58429;49.826;10.880;2023-08-06T00:25:26;97926;;;15.81;82.99
4326;BME280;58429;49.826;10.880;2023-08-06T00:26:26;97920;;;15.8;82.88
4326;BME280;58429;49.826;10.880;2023-08-06T00:27:26;97917;;;15.8;82.96
4326;BME280;58429;49.826;10.880;2023-08-06T00:28:26;97923;;;15.75;82.97
4326;BME280;58429;49.826;10.880;2023-08-06T00:29:26;97929;;;15.78;82.99
4326;BME280;58429;49.826;10.880;2023-08-06T00:30:26;97924;;;15.72;83.16
4326;BME280;58429;49.826;10.880;2023-08-06T00:31:26;97925;;;15.71;82.97
4326;BME280;58429;49.826;10.880;2023-08-06T00:32:26;97919;;;15.68;82.88
4326;BME280;58429;49.826;10.880;2023-08-06T00:33:26;97918;;;15.71;82.86
4326;BME280;58429;49.826;10.880;2023-08-06T00:34:26;97920;;;15.7;83.09
4326;BME280;58429;49.826;10.880;2023-08-06T00:35:26;97917;;;15.69;83.3
4326;BME280;58429;49.826;10.880;2023-08-06T00:36:26;97916;;;15.67;83.34
4326;BME280;58429;49.826;10.880;2023-08-06T00:37:26;97908;;;15.67;83.44
4326;BME280;58429;49.826;10.880;2023-08-06T00:38:26;97907;;;15.69;83.38
4326;BME280;58429;49.826;10.880;2023-08-06T00:39:26;97906;;;15.69;83.84
4326;BME280;58429;49.826;10.880;2023-08-06T00:40:26;97898;;;15.68;83.73
4326;BME280;58429;49.826;10.880;2023-08-06T00:41:26;97898;;;15.72;83.66
4326;BME280;58429;49.826;10.880;2023-08-06T00:42:26;97885;;;15.73;83.66
4326;BME280;58429;49.826;10.880;2023-08-06T00:43:26;97885;;;15.7;83.59
4326;BME280;58429;49.826;10.880;2023-08-06T00:44:27;97880;;;15.74;83.48
4326;BME280;58429;49.826;10.880;2023-08-06T00:45:26;97892;;;15.73;83.36
4326;BME280;58429;49.826;10.880;2023-08-06T00:46:26;97880;;;15.74;83.53
4326;BME280;58429;49.826;10.880;2023-08-06T00:47:26;97894;;;15.7;83.64
4326;BME280;58429;49.826;10.880;2023-08-06T00:48:26;97884;;;15.75;83.6
4326;BME280;58429;49.826;10.880;2023-08-06T00:49:26;97881;;;15.75;83.53
4326;BME280;58429;49.826;10.880;2023-08-06T00:50:26;97889;;;15.78;83.53
4326;BME280;58429;49.826;10.880;2023-08-06T00:51:26;97884;;;15.78;83.53
4326;BME280;58429;49.826;10.880;2023-08-06T00:52:26;97885;;;15.77;83.52
4326;BME280;58429;49.826;10.880;2023-08-06T00:53:26;97890;;;15.76;83.52
4326;BME280;58429;49.826;10.880;2023-08-06T00:54:26;97884;;;15.8;83.56
4326;BME280;58429;49.826;10.880;2023-08-06T00:55:26;97878;;;15.78;83.52
4326;BME280;58429;49.826;10.880;2023-08-06T00:56:27;97882;;;15.83;83.48
4326;BME280;58429;49.826;10.880;2023-08-06T00:57:26;97879;;;15.85;83.38
4326;BME280;58429;49.826;10.880;2023-08-06T00:58:26;97874;;;15.83;83.39
4326;BME280;58429;49.826;10.880;2023-08-06T00:59:26;97875;;;15.82;83.4
4326;BME280;58429;49.826;10.880;2023-08-06T01:00:27;97868;;;15.82;83.38
4326;BME280;58429;49.826;10.880;2023-08-06T01:01:27;97876;;;15.82;83.39
4326;BME280;58429;49.826;10.880;2023-08-06T01:02:26;97873;;;15.85;83.38
4326;BME280;58429;49.826;10.880;2023-08-06T01:03:26;97883;;;15.87;83.43
4326;BME280;58429;49.826;10.880;2023-08-06T01:04:26;97875;;;15.86;83.52
4326;BME280;58429;49.826;10.880;2023-08-06T01:05:26;97880;;;15.86;83.56
4326;BME280;58429;49.826;10.880;2023-08-06T01:06:30;97882;;;15.89;83.79
4326;BME280;58429;49.826;10.880;2023-08-06T01:07:30;97882;;;15.83;84.04
4326;BME280;58429;49.826;10.880;2023-08-06T01:08:29;97883;;;15.8;83.95
4326;BME280;58429;49.826;10.880;2023-08-06T01:09:29;97884;;;15.8;83.9
4326;BME280;58429;49.826;10.880;2023-08-06T01:10:30;97889;;;15.83;83.93
4326;BME280;58429;49.826;10.880;2023-08-06T01:11:29;97880;;;15.82;83.94
4326;BME280;58429;49.826;10.880;2023-08-06T01:12:30;97884;;;15.82;84.05
4326;BME280;58429;49.826;10.880;2023-08-06T01:13:28;97883;;;15.82;83.97
4326;BME280;58429;49.826;10.880;2023-08-06T01:14:28;97886;;;15.81;84.09
4326;BME280;58429;49.826;10.880;2023-08-06T01:15:28;97890;;;15.81;84.17
4326;BME280;58429;49.826;10.880;2023-08-06T01:16:27;97892;;;15.77;84.59
4326;BME280;58429;49.826;10.880;2023-08-06T01:17:26;97888;;;15.77;84.46
4326;BME280;58429;49.826;10.880;2023-08-06T01:18:26;97882;;;15.75;84.45
4326;BME280;58429;49.826;10.880;2023-08-06T01:19:27;97880;;;15.78;84.36
4326;BME280;58429;49.826;10.880;2023-08-06T01:20:27;97881;;;15.77;84.19
4326;BME280;58429;49.826;10.880;2023-08-06T01:21:27;97878;;;15.77;84.19
4326;BME280;58429;49.826;10.880;2023-08-06T01:22:26;97872;;;15.76;84.16
4326;BME280;58429;49.826;10.880;2023-08-06T01:23:26;97863;;;15.75;84.05
4326;BME280;58429;49.826;10.880;2023-08-06T01:24:27;97869;;;15.81;84.11
4326;BME280;58429;49.826;10.880;2023-08-06T01:25:31;97870;;;15.82;84.13
4326;BME280;58429;49.826;10.880;2023-08-06T01:26:27;97863;;;15.82;84.17
4326;BME280;58429;49.826;10.880;2023-08-06T01:27:28;97864;;;15.81;84.12
4326;BME280;58429;49.826;10.880;2023-08-06T01:28:27;97857;;;15.82;84.08
4326;BME280;58429;49.826;10.880;2023-08-06T01:29:28;97860;;;15.83;84.12
4326;BME280;58429;49.826;10.880;2023-08-06T01:30:27;97858;;;15.83;84.12
4326;BME280;58429;49.826;10.880;2023-08-06T01:31:27;97862;;;15.83;84.09
4326;BME280;58429;49.826;10.880;2023-08-06T01:32:27;97856;;;15.83;84.07
4326;BME280;58429;49.826;10.880;2023-08-06T01:33:27;97864;;;15.86;84.08
4326;BME280;58429;49.826;10.880;2023-08-06T01:34:27;97868;;;15.81;84.11
4326;BME280;58429;49.826;10.880;2023-08-06T01:35:27;97862;;;15.84;84.22
4326;BME280;58429;49.826;10.880;2023-08-06T01:36:27;97861;;;15.83;84.16
4326;BME280;58429;49.826;10.880;2023-08-06T01:37:27;97862;;;15.86;84.14
4326;BME280;58429;49.826;10.880;2023-08-06T01:38:26;97858;;;15.87;84.15
4326;BME280;58429;49.826;10.880;2023-08-06T01:39:26;97855;;;15.85;84.21
4326;BME280;58429;49.826;10.880;2023-08-06T01:40:27;97862;;;15.86;84.38
4326;BME280;58429;49.826;10.880;2023-08-06T01:41:26;97865;;;15.86;84.4
4326;BME280;58429;49.826;10.880;2023-08-06T01:42:27;97862;;;15.86;84.54
4326;BME280;58429;49.826;10.880;2023-08-06T01:43:27;97858;;;15.84;84.47
4326;BME280;58429;49.826;10.880;2023-08-06T01:44:27;97859;;;15.82;84.36
4326;BME280;58429;49.826;10.880;2023-08-06T01:45:27;97857;;;15.84;84.38
4326;BME280;58429;49.826;10.880;2023-08-06T01:46:27;97856;;;15.83;84.45
4326;BME280;58429;49.826;10.880;2023-08-06T01:47:27;97862;;;15.83;84.5
4326;BME280;58429;49.826;10.880;2023-08-06T01:48:27;97852;;;15.82;84.59
4326;BME280;58429;49.826;10.880;2023-08-06T01:49:27;97852;;;15.84;84.66
4326;BME280;58429;49.826;10.880;2023-08-06T01:50:27;97848;;;15.84;84.73
4326;BME280;58429;49.826;10.880;2023-08-06T01:51:27;97849;;;15.84;84.74
4326;BME280;58429;49.826;10.880;2023-08-06T01:52:27;97850;;;15.84;84.8
4326;BME280;58429;49.826;10.880;2023-08-06T01:53:27;97853;;;15.84;84.83
4326;BME280;58429;49.826;10.880;2023-08-06T01:54:27;97848;;;15.85;84.79
4326;BME280;58429;49.826;10.880;2023-08-06T01:55:26;97846;;;15.84;84.77
4326;BME280;58429;49.826;10.880;2023-08-06T01:56:27;97843;;;15.85;84.74
4326;BME280;58429;49.826;10.880;2023-08-06T01:57:27;97845;;;15.88;84.79
4326;BME280;58429;49.826;10.880;2023-08-06T01:58:27;97845;;;15.86;84.76
4326;BME280;58429;49.826;10.880;2023-08-06T01:59:27;97832;;;15.83;84.75
4326;BME280;58429;49.826;10.880;2023-08-06T02:00:27;97843;;;15.82;84.82
4326;BME280;58429;49.826;10.880;2023-08-06T02:01:27;97845;;;15.83;84.87
4326;BME280;58429;49.826;10.880;2023-08-06T02:02:27;97842;;;15.81;84.8
4326;BME280;58429;49.826;10.880;2023-08-06T02:03:27;97837;;;15.83;84.79
4326;BME280;58429;49.826;10.880;2023-08-06T02:04:27;97837;;;15.8;84.77
4326;BME280;58429;49.826;10.880;2023-08-06T02:05:27;97841;;;15.82;84.82
4326;BME280;58429;49.826;10.880;2023-08-06T02:06:27;97838;;;15.81;84.74
4326;BME280;58429;49.826;10.880;2023-08-06T02:07:27;97841;;;15.81;84.84
4326;BME280;58429;49.826;10.880;2023-08-06T02:08:27;97842;;;15.78;84.96
4326;BME280;58429;49.826;10.880;2023-08-06T02:09:27;97840;;;15.77;85.02
4326;BME280;58429;49.826;10.880;2023-08-06T02:10:27;97835;;;15.74;85.15
4326;BME280;58429;49.826;10.880;2023-08-06T02:11:27;97833;;;15.72;85.23
4326;BME280;58429;49.826;10.880;2023-08-06T02:12:27;97829;;;15.69;85.2
4326;BME280;58429;49.826;10.880;2023-08-06T02:13:27;97839;;;15.67;85.15
4326;BME280;58429;49.826;10.880;2023-08-06T02:14:27;97835;;;15.66;85.11
4326;BME280;58429;49.826;10.880;2023-08-06T02:15:27;97831;;;15.64;85.15
4326;BME280;58429;49.826;10.880;2023-08-06T02:16:27;97836;;;15.64;85.11
4326;BME280;58429;49.826;10.880;2023-08-06T02:17:27;97830;;;15.66;85.05
4326;BME280;58429;49.826;10.880;2023-08-06T02:18:27;97825;;;15.65;85.07
4326;BME280;58429;49.826;10.880;2023-08-06T02:19:27;97821;;;15.64;85.05
4326;BME280;58429;49.826;10.880;2023-08-06T02:20:27;97824;;;15.66;85
4326;BME280;58429;49.826;10.880;2023-08-06T02:21:27;97822;;;15.66;84.93
4326;BME280;58429;49.826;10.880;2023-08-06T02:22:27;97823;;;15.67;85.02
4326;BME280;58429;49.826;10.880;2023-08-06T02:23:27;97819;;;15.68;85.02
4326;BME280;58429;49.826;10.880;2023-08-06T02:24:27;97819;;;15.65;84.99
4326;BME280;58429;49.826;10.880;2023-08-06T02:25:27;97818;;;15.66;85.03
4326;BME280;58429;49.826;10.880;2023-08-06T02:26:27;97820;;;15.68;85.09
4326;BME280;58429;49.826;10.880;2023-08-06T02:27:27;97822;;;15.67;85.02
4326;BME280;58429;49.826;10.880;2023-08-06T02:28:27;97821;;;15.68;85
4326;BME280;58429;49.826;10.880;2023-08-06T02:29:27;97815;;;15.63;85
4326;BME280;58429;49.826;10.880;2023-08-06T02:30:27;97821;;;15.59;85.11
4326;BME280;58429;49.826;10.880;2023-08-06T02:31:27;97814;;;15.56;85.14
4326;BME280;58429;49.826;10.880;2023-08-06T02:32:27;97820;;;15.53;85.15
4326;BME280;58429;49.826;10.880;2023-08-06T02:33:27;97816;;;15.51;85.16
4326;BME280;58429;49.826;10.880;2023-08-06T02:34:27;97818;;;15.46;85.34
4326;BME280;58429;49.826;10.880;2023-08-06T02:35:27;97815;;;15.5;85.24
4326;BME280;58429;49.826;10.880;2023-08-06T02:36:27;97810;;;15.5;85.23
4326;BME280;58429;49.826;10.880;2023-08-06T02:37:27;97818;;;15.47;85.16
4326;BME280;58429;49.826;10.880;2023-08-06T02:38:27;97820;;;15.42;85.35
4326;BME280;58429;49.826;10.880;2023-08-06T02:39:27;97816;;;15.37;85.37
4326;BME280;58429;49.826;10.880;2023-08-06T02:40:27;97820;;;15.38;85.61
4326;BME280;58429;49.826;10.880;2023-08-06T02:41:27;97819;;;15.36;85.69
4326;BME280;58429;49.826;10.880;2023-08-06T02:42:27;97820;;;15.35;85.66
4326;BME280;58429;49.826;10.880;2023-08-06T02:43:27;97814;;;15.34;85.65
4326;BME280;58429;49.826;10.880;2023-08-06T02:44:27;97812;;;15.33;85.89
4326;BME280;58429;49.826;10.880;2023-08-06T02:45:27;97804;;;15.31;85.72
4326;BME280;58429;49.826;10.880;2023-08-06T02:46:27;97806;;;15.32;85.76
4326;BME280;58429;49.826;10.880;2023-08-06T02:47:27;97809;;;15.27;85.74
4326;BME280;58429;49.826;10.880;2023-08-06T02:48:27;97809;;;15.28;85.71
4326;BME280;58429;49.826;10.880;2023-08-06T02:49:27;97798;;;15.3;85.67
4326;BME280;58429;49.826;10.880;2023-08-06T02:50:27;97794;;;15.31;85.67
4326;BME280;58429;49.826;10.880;2023-08-06T02:51:27;97792;;;15.29;85.65
4326;BME280;58429;49.826;10.880;2023-08-06T02:52:27;97790;;;15.31;85.51
4326;BME280;58429;49.826;10.880;2023-08-06T02:53:27;97784;;;15.31;85.47
4326;BME280;58429;49.826;10.880;2023-08-06T02:54:27;97791;;;15.33;85.36
4326;BME280;58429;49.826;10.880;2023-08-06T02:55:27;97784;;;15.33;85.26
4326;BME280;58429;49.826;10.880;2023-08-06T02:56:27;97789;;;15.31;85.27
4326;BME280;58429;49.826;10.880;2023-08-06T02:57:27;97785;;;15.31;85.24
4326;BME280;58429;49.826;10.880;2023-08-06T02:58:27;97781;;;15.32;85.19
4326;BME280;58429;49.826;10.880;2023-08-06T02:59:27;97775;;;15.33;85.15
4326;BME280;58429;49.826;10.880;2023-08-06T03:00:27;97780;;;15.34;85.09
4326;BME280;58429;49.826;10.880;2023-08-06T03:01:27;97780;;;15.34;85.11
4326;BME280;58429;49.826;10.880;2023-08-06T03:02:27;97779;;;15.35;85.08
4326;BME280;58429;49.826;10.880;2023-08-06T03:03:27;97776;;;15.34;85.03
4326;BME280;58429;49.826;10.880;2023-08-06T03:04:27;97770;;;15.35;85.05
4326;BME280;58429;49.826;10.880;2023-08-06T03:05:27;97774;;;15.32;85.08
4326;BME280;58429;49.826;10.880;2023-08-06T03:06:27;97771;;;15.34;85.07
4326;BME280;58429;49.826;10.880;2023-08-06T03:07:27;97774;;;15.34;85.09
4326;BME280;58429;49.826;10.880;2023-08-06T03:08:27;97773;;;15.34;84.96
4326;BME280;58429;49.826;10.880;2023-08-06T03:09:27;97771;;;15.34;84.96
4326;BME280;58429;49.826;10.880;2023-08-06T03:10:27;97768;;;15.33;85.01
4326;BME280;58429;49.826;10.880;2023-08-06T03:11:27;97763;;;15.33;84.92
4326;BME280;58429;49.826;10.880;2023-08-06T03:12:27;97763;;;15.33;84.95
4326;BME280;58429;49.826;10.880;2023-08-06T03:13:27;97762;;;15.31;84.84
4326;BME280;58429;49.826;10.880;2023-08-06T03:14:27;97765;;;15.32;84.79
4326;BME280;58429;49.826;10.880;2023-08-06T03:15:27;97750;;;15.32;84.86
4326;BME280;58429;49.826;10.880;2023-08-06T03:16:27;97754;;;15.31;84.84
4326;BME280;58429;49.826;10.880;2023-08-06T03:17:27;97757;;;15.31;84.86
4326;BME280;58429;49.826;10.880;2023-08-06T03:18:27;97759;;;15.31;84.84
4326;BME280;58429;49.826;10.880;2023-08-06T03:19:27;97758;;;15.32;84.81
4326;BME280;58429;49.826;10.880;2023-08-06T03:20:27;97748;;;15.29;84.82
4326;BME280;58429;49.826;10.880;2023-08-06T03:21:27;97744;;;15.32;84.92
4326;BME280;58429;49.826;10.880;2023-08-06T03:22:27;97743;;;15.33;85.01
4326;BME280;58429;49.826;10.880;2023-08-06T03:23:27;97744;;;15.31;85.11
4326;BME280;58429;49.826;10.880;2023-08-06T03:24:27;97739;;;15.33;85.18
4326;BME280;58429;49.826;10.880;2023-08-06T03:25:27;97739;;;15.33;85.31
4326;BME280;58429;49.826;10.880;2023-08-06T03:26:27;97745;;;15.32;85.42
4326;BME280;58429;49.826;10.880;2023-08-06T03:27:27;97741;;;15.31;85.4
4326;BME280;58429;49.826;10.880;2023-08-06T03:28:27;97759;;;15.29;85.42
4326;BME280;58429;49.826;10.880;2023-08-06T03:29:27;97764;;;15.28;85.36
4326;BME280;58429;49.826;10.880;2023-08-06T03:30:27;97758;;;15.2;85.48
4326;BME280;58429;49.826;10.880;2023-08-06T03:31:27;97755;;;15.15;85.41
4326;BME280;58429;49.826;10.880;2023-08-06T03:32:27;97759;;;15.13;85.32
4326;BME280;58429;49.826;10.880;2023-08-06T03:33:27;97748;;;15.16;85.24
4326;BME280;58429;49.826;10.880;2023-08-06T03:34:27;97750;;;15.13;85.17
4326;BME280;58429;49.826;10.880;2023-08-06T03:35:27;97750;;;15.11;85.13
4326;BME280;58429;49.826;10.880;2023-08-06T03:36:27;97752;;;15.09;85.3
4326;BME280;58429;49.826;10.880;2023-08-06T03:37:27;97750;;;15.08;85.36
4326;BME280;58429;49.826;10.880;2023-08-06T03:38:27;97746;;;15.08;85.34
4326;BME280;58429;49.826;10.880;2023-08-06T03:39:27;97743;;;15.06;85.34
4326;BME280;58429;49.826;10.880;2023-08-06T03:40:27;97750;;;15.08;85.31
4326;BME280;58429;49.826;10.880;2023-08-06T03:41:27;97747;;;15.09;85.24
4326;BME280;58429;49.826;10.880;2023-08-06T03:42:27;97749;;;15.09;85.21
4326;BME280;58429;49.826;10.880;2023-08-06T03:43:27;97746;;;15.13;85.15
4326;BME280;58429;49.826;10.880;2023-08-06T03:44:27;97754;;;15.1;85.13
4326;BME280;58429;49.826;10.880;2023-08-06T03:45:27;97749;;;15.11;85.05
4326;BME280;58429;49.826;10.880;2023-08-06T03:46:27;97745;;;15.05;85.02
4326;BME280;58429;49.826;10.880;2023-08-06T03:47:27;97743;;;15.07;85
4326;BME280;58429;49.826;10.880;2023-08-06T03:48:27;97738;;;15.08;85
4326;BME280;58429;49.826;10.880;2023-08-06T03:49:27;97738;;;15.08;85.06
4326;BME280;58429;49.826;10.880;2023-08-06T03:50:27;97738;;;15.07;84.98
4326;BME280;58429;49.826;10.880;2023-08-06T03:51:27;97739;;;15.09;84.89
4326;BME280;58429;49.826;10.880;2023-08-06T03:52:27;97734;;;15.1;84.82
4326;BME280;58429;49.826;10.880;2023-08-06T03:53:27;97736;;;15.08;84.8
4326;BME280;58429;49.826;10.880;2023-08-06T03:54:27;97732;;;15.1;84.75
4326;BME280;58429;49.826;10.880;2023-08-06T03:55:27;97736;;;15.1;84.7
4326;BME280;58429;49.826;10.880;2023-08-06T03:56:27;97739;;;15.08;84.75
4326;BME280;58429;49.826;10.880;2023-08-06T03:57:27;97732;;;15.09;84.77
4326;BME280;58429;49.826;10.880;2023-08-06T03:58:27;97734;;;15.07;84.75
4326;BME280;58429;49.826;10.880;2023-08-06T03:59:27;97731;;;15.08;84.78
4326;BME280;58429;49.826;10.880;2023-08-06T04:00:27;97733;;;15.08;84.71
4326;BME280;58429;49.826;10.880;2023-08-06T04:01:27;97734;;;15.08;84.66
4326;BME280;58429;49.826;10.880;2023-08-06T04:02:27;97737;;;15.1;84.62
4326;BME280;58429;49.826;10.880;2023-08-06T04:03:27;97729;;;15.06;84.57
4326;BME280;58429;49.826;10.880;2023-08-06T04:04:27;97740;;;15.06;84.69
4326;BME280;58429;49.826;10.880;2023-08-06T04:05:27;97738;;;15;84.89
4326;BME280;58429;49.826;10.880;2023-08-06T04:06:27;97737;;;14.95;84.89
4326;BME280;58429;49.826;10.880;2023-08-06T04:07:27;97736;;;15;84.91
4326;BME280;58429;49.826;10.880;2023-08-06T04:08:27;97736;;;14.99;84.86
4326;BME280;58429;49.826;10.880;2023-08-06T04:09:27;97726;;;14.96;84.81
4326;BME280;58429;49.826;10.880;2023-08-06T04:10:27;97731;;;14.98;84.84
4326;BME280;58429;49.826;10.880;2023-08-06T04:11:27;97733;;;14.97;84.81
4326;BME280;58429;49.826;10.880;2023-08-06T04:12:27;97729;;;14.96;84.77
4326;BME280;58429;49.826;10.880;2023-08-06T04:13:27;97734;;;14.98;84.77
4326;BME280;58429;49.826;10.880;2023-08-06T04:14:27;97726;;;14.94;84.65
4326;BME280;58429;49.826;10.880;2023-08-06T04:15:27;97729;;;14.98;84.71
4326;BME280;58429;49.826;10.880;2023-08-06T04:16:28;97732;;;14.95;84.7
4326;BME280;58429;49.826;10.880;2023-08-06T04:17:27;97731;;;14.98;84.74
4326;BME280;58429;49.826;10.880;2023-08-06T04:18:27;97733;;;14.95;84.74
4326;BME280;58429;49.826;10.880;2023-08-06T04:19:27;97732;;;14.94;84.79
4326;BME280;58429;49.826;10.880;2023-08-06T04:20:27;97729;;;14.93;84.73
4326;BME280;58429;49.826;10.880;2023-08-06T04:21:27;97735;;;14.93;84.72
4326;BME280;58429;49.826;10.880;2023-08-06T04:22:27;97732;;;14.91;84.75
4326;BME280;58429;49.826;10.880;2023-08-06T04:23:27;97738;;;14.84;84.9
4326;BME280;58429;49.826;10.880;2023-08-06T04:24:27;97739;;;14.85;84.93
4326;BME280;58429;49.826;10.880;2023-08-06T04:25:27;97740;;;14.84;84.93
4326;BME280;58429;49.826;10.880;2023-08-06T04:26:27;97741;;;14.83;84.94
4326;BME280;58429;49.826;10.880;2023-08-06T04:27:27;97732;;;14.81;84.89
4326;BME280;58429;49.826;10.880;2023-08-06T04:28:27;97737;;;14.82;84.88
4326;BME280;58429;49.826;10.880;2023-08-06T04:29:27;97734;;;14.79;84.83
4326;BME280;58429;49.826;10.880;2023-08-06T04:30:27;97744;;;14.8;84.83
4326;BME280;58429;49.826;10.880;2023-08-06T04:31:28;97741;;;14.79;84.82
4326;BME280;58429;49.826;10.880;2023-08-06T04:32:27;97738;;;14.76;84.9
4326;BME280;58429;49.826;10.880;2023-08-06T04:33:27;97742;;;14.71;84.96
4326;BME280;58429;49.826;10.880;2023-08-06T04:34:27;97735;;;14.69;85.02
4326;BME280;58429;49.826;10.880;2023-08-06T04:35:27;97727;;;14.64;85.2
4326;BME280;58429;49.826;10.880;2023-08-06T04:36:27;97735;;;14.62;85.29
4326;BME280;58429;49.826;10.880;2023-08-06T04:37:27;97729;;;14.62;85.29
4326;BME280;58429;49.826;10.880;2023-08-06T04:38:27;97734;;;14.6;85.35
4326;BME280;58429;49.826;10.880;2023-08-06T04:39:27;97734;;;14.59;85.31
4326;BME280;58429;49.826;10.880;2023-08-06T04:40:27;97729;;;14.59;85.32
4326;BME280;58429;49.826;10.880;2023-08-06T04:41:27;97732;;;14.63;85.24
4326;BME280;58429;49.826;10.880;2023-08-06T04:42:27;97730;;;14.63;85.22
4326;BME280;58429;49.826;10.880;2023-08-06T04:43:27;97731;;;14.64;85.24
4326;BME280;58429;49.826;10.880;2023-08-06T04:44:27;97736;;;14.62;85.23
4326;BME280;58429;49.826;10.880;2023-08-06T04:45:27;97723;;;14.69;85.23
4326;BME280;58429;49.826;10.880;2023-08-06T04:46:27;97735;;;14.65;85.25
4326;BME280;58429;49.826;10.880;2023-08-06T04:47:28;97733;;;14.66;85.25
4326;BME280;58429;49.826;10.880;2023-08-06T04:48:27;97730;;;14.61;85.14
4326;BME280;58429;49.826;10.880;2023-08-06T04:49:27;97729;;;14.65;85.16
4326;BME280;58429;49.826;10.880;2023-08-06T04:50:27;97730;;;14.7;85.12
4326;BME280;58429;49.826;10.880;2023-08-06T04:51:27;97726;;;14.7;85.11
4326;BME280;58429;49.826;10.880;2023-08-06T04:52:27;97732;;;14.66;85.06
4326;BME280;58429;49.826;10.880;2023-08-06T04:53:27;97733;;;14.69;85.11
4326;BME280;58429;49.826;10.880;2023-08-06T04:54:27;97728;;;14.71;85.14
4326;BME280;58429;49.826;10.880;2023-08-06T04:55:27;97731;;;14.69;85.2
4326;BME280;58429;49.826;10.880;2023-08-06T04:56:27;97729;;;14.68;85.25
4326;BME280;58429;49.826;10.880;2023-08-06T04:57:27;97732;;;14.68;85.25
4326;BME280;58429;49.826;10.880;2023-08-06T04:58:27;97733;;;14.7;85.32
4326;BME280;58429;49.826;10.880;2023-08-06T04:59:28;97730;;;14.76;85.33
4326;BME280;58429;49.826;10.880;2023-08-06T05:00:27;97725;;;14.73;85.36
4326;BME280;58429;49.826;10.880;2023-08-06T05:01:27;97730;;;14.72;85.36
4326;BME280;58429;49.826;10.880;2023-08-06T05:02:28;97735;;;14.71;85.34
4326;BME280;58429;49.826;10.880;2023-08-06T05:03:28;97736;;;14.74;85.33
4326;BME280;58429;49.826;10.880;2023-08-06T05:04:27;97734;;;14.75;85.3
4326;BME280;58429;49.826;10.880;2023-08-06T05:05:27;97726;;;14.77;85.28
4326;BME280;58429;49.826;10.880;2023-08-06T05:06:27;97726;;;14.74;85.18
4326;BME280;58429;49.826;10.880;2023-08-06T05:07:27;97729;;;14.8;85.24
4326;BME280;58429;49.826;10.880;2023-08-06T05:08:27;97727;;;14.81;85.23
4326;BME280;58429;49.826;10.880;2023-08-06T05:09:27;97726;;;14.8;85.2
4326;BME280;58429;49.826;10.880;2023-08-06T05:10:27;97730;;;14.83;85.18
4326;BME280;58429;49.826;10.880;2023-08-06T05:11:27;97723;;;14.82;85.15
4326;BME280;58429;49.826;10.880;2023-08-06T05:12:27;97722;;;14.83;85.1
4326;BME280;58429;49.826;10.880;2023-08-06T05:13:27;97723;;;14.82;85.08
4326;BME280;58429;49.826;10.880;2023-08-06T05:14:27;97719;;;14.88;85.14
4326;BME280;58429;49.826;10.880;2023-08-06T05:15:27;97725;;;14.85;85.24
4326;BME280;58429;49.826;10.880;2023-08-06T05:16:27;97721;;;14.87;85.36
4326;BME280;58429;49.826;10.880;2023-08-06T05:17:28;97720;;;14.86;85.39
4326;BME280;58429;49.826;10.880;2023-08-06T05:18:27;97724;;;14.86;85.29
4326;BME280;58429;49.826;10.880;2023-08-06T05:19:28;97723;;;14.83;85.17
4326;BME280;58429;49.826;10.880;2023-08-06T05:20:27;97719;;;14.81;85.21
4326;BME280;58429;49.826;10.880;2023-08-06T05:21:27;97723;;;14.8;85.22
4326;BME280;58429;49.826;10.880;2023-08-06T05:22:27;97717;;;14.85;85.18
4326;BME280;58429;49.826;10.880;2023-08-06T05:23:27;97720;;;14.83;85.2
4326;BME280;58429;49.826;10.880;2023-08-06T05:24:27;97721;;;14.84;85.33
4326;BME280;58429;49.826;10.880;2023-08-06T05:25:27;97719;;;14.84;85.39
4326;BME280;58429;49.826;10.880;2023-08-06T05:26:27;97719;;;14.84;85.38
4326;BME280;58429;49.826;10.880;2023-08-06T05:27:27;97725;;;14.84;85.37
4326;BME280;58429;49.826;10.880;2023-08-06T05:28:27;97719;;;14.85;85.51
4326;BME280;58429;49.826;10.880;2023-08-06T05:29:27;97726;;;14.82;85.42
4326;BME280;58429;49.826;10.880;2023-08-06T05:30:28;97726;;;14.84;85.47
4326;BME280;58429;49.826;10.880;2023-08-06T05:31:27;97725;;;14.85;85.54